ADDS METAR Data INFO
IDs: Format: Raw Decoded Include TAF

Data at: 0714 UTC 24 Jun 2018

KFAT 240653Z 30006KT 10SM CLR 29/10 A2971 RMK AO2 SLP056 T02890100
KFAT 240553Z 32006KT 10SM CLR 31/08 A2970 RMK AO2 SLP051 T03110083 10383 20311 53009
KFAT 240453Z 31008KT 10SM CLR 32/08 A2969 RMK AO2 SLP048 T03170078
KFAT 240353Z 30008KT 10SM CLR 33/10 A2968 RMK AO2 SLP044 HZ DSNT ALQDS T03330100
KFAT 240253Z 30013KT 10SM CLR 36/08 A2967 RMK AO2 SLP041 HZ DSNT ALQDS T03560083 56006
KFAT 240153Z 32011KT 10SM CLR 37/09 A2967 RMK AO2 SLP042 HZ DSNT ALQDS T03720094
KFAT 240053Z 31011KT 10SM CLR 38/12 A2967 RMK AO2 SLP043 MTNS PTLY OBSC HZ DSNT N-E-SE T03780117
KFAT 232353Z 28007G15KT 260V330 10SM FEW100 38/12 A2968 RMK AO2 SLP047 MTNS PTLY OBSC HZ DSNT N-E-SE T03780117 10389 20322 57014
KFAT 232253Z 28007KT 10SM FEW090 38/08 A2970 RMK AO2 SLP052 MTNS PTLY OBSC HZ DSNT N-E-SE T03830083
KFAT 232153Z 27007KT 10SM CLR 37/11 A2971 RMK AO2 SLP056 T03720106
KFAT 232053Z 30010KT 10SM CLR 36/11 A2972 RMK AO2 SLP061 T03610111 58013
KFAT 231953Z 24005KT 10SM CLR 35/11 A2974 RMK AO2 SLP065 T03500106
KFAT 231853Z 00000KT 10SM CLR 34/10 A2975 RMK AO2 SLP069 T03390100
KFAT 231753Z 00000KT 10SM CLR 32/12 A2976 RMK AO2 SLP073 T03220117 10322 20217 58005
KFAT 231653Z VRB04KT 10SM CLR 30/11 A2977 RMK AO2 SLP075 T03000111
KFAT 231553Z VRB03KT 10SM CLR 28/12 A2977 RMK AO2 SLP078 T02830117
KFAT 231453Z VRB04KT 10SM CLR 26/13 A2978 RMK AO2 SLP078 T02560128 53014
KFAT 231353Z 20004KT 10SM CLR 24/12 A2976 RMK AO2 SLP072 MTNS OBSC DSNT N-E-SE T02440117
KFAT 231253Z 00000KT 10SM CLR 22/12 A2975 RMK AO2 SLP069 MTNS OBSC DSNT E-SE T02170117
KFAT 231153Z 00000KT 10SM FEW250 22/12 A2974 RMK AO2 SLP065 T02220117 10300 20222 57003
KFAT 231053Z 00000KT 10SM FEW250 23/12 A2974 RMK AO2 SLP066 T02330122
KFAT 230953Z 32004KT 10SM SCT250 25/11 A2974 RMK AO2 SLP067 T02500111
KFAT 230853Z 32004KT 10SM BKN250 26/11 A2974 RMK AO2 SLP068 T02610111 57007
KFAT 230753Z 28005KT 10SM SCT250 27/12 A2975 RMK AO2 SLP069 T02670117 403780189
KFAT 230653Z 27005KT 10SM CLR 28/12 A2976 RMK AO2 SLP073 T02830117
KFAT 230553Z 31005KT 10SM CLR 31/10 A2977 RMK AO2 SLP075 T03060100 10378 20306 50006
KFAT 230453Z 31008KT 10SM CLR 32/09 A2977 RMK AO2 SLP075 T03220089
KFAT 230353Z 30007KT 10SM CLR 33/09 A2976 RMK AO2 SLP071 T03280089
KFAT 230253Z 30010KT 10SM CLR 35/07 A2975 RMK AO2 SLP069 T03500072 56011
KFAT 230153Z 31013KT 10SM CLR 37/06 A2975 RMK AO2 SLP069 T03670061
KFAT 230053Z 31010KT 10SM FEW200 37/07 A2976 RMK AO2 SLP072 MTNS PTLY OBSC HZ DSNT N-E-SE T03720072
KFAT 222353Z 31008KT 280V340 10SM FEW200 37/04 A2978 RMK AO2 SLP080 MTNS PTLY OBSC HZ DSNT N-E-SE T03720039 10378 20306 58024
KFAT 222253Z 28012KT 10SM FEW200 38/06 A2981 RMK AO2 SLP089 MTNS PTLY OBSC HZ DSNT N-E-SE T03780056
KFAT 222153Z 29003KT 10SM CLR 37/06 A2983 RMK AO2 SLP096 T03670061
KFAT 222053Z 13004KT 10SM CLR 36/06 A2985 RMK AO2 SLP105 T03560061 58020
KFAT 221953Z 15006KT 10SM CLR 33/11 A2988 RMK AO2 SLP115 T03330106